sensor_id;sensor_type;location;lat;lon;timestamp;pressure;altitude;pressure_sealevel;temperature;humidity
12664;BME280;6396;58.490;15.528;2023-07-20T00:01:28;99687.38;;;14.67;100.00
12664;BME280;6396;58.490;15.528;2023-07-20T00:03:55;99688.41;;;14.65;100.00
12664;BME280;6396;58.490;15.528;2023-07-20T00:06:22;99635.06;;;14.38;100.00
12664;BME280;6396;58.490;15.528;2023-07-20T00:08:50;99465.38;;;13.27;100.00
12664;BME280;6396;58.490;15.528;2023-07-20T00:11:17;99684.97;;;14.63;100.00
12664;BME280;6396;58.490;15.528;2023-07-20T00:13:44;99679.84;;;14.60;100.00
12664;BME280;6396;58.490;15.528;2023-07-20T00:16:10;99464.00;;;13.36;100.00
12664;BME280;6396;58.490;15.528;2023-07-20T00:18:37;99674.81;;;14.55;100.00
12664;BME280;6396;58.490;15.528;2023-07-20T00:21:04;99669.06;;;14.47;100.00
12664;BME280;6396;58.490;15.528;2023-07-20T00:23:30;99644.13;;;14.18;100.00
12664;BME280;6396;58.490;15.528;2023-07-20T00:25:59;99628.72;;;14.25;100.00
12664;BME280;6396;58.490;15.528;2023-07-20T00:28:25;99693.66;;;14.50;100.00
12664;BME280;6396;58.490;15.528;2023-07-20T00:30:52;99675.31;;;14.46;100.00
12664;BME280;6396;58.490;15.528;2023-07-20T00:33:19;99387.50;;;12.66;100.00
12664;BME280;6396;58.490;15.528;2023-07-20T00:35:45;99667.88;;;14.37;100.00
12664;BME280;6396;58.490;15.528;2023-07-20T00:38:12;99628.13;;;14.20;100.00
12664;BME280;6396;58.490;15.528;2023-07-20T00:40:40;99717.13;;;14.42;100.00
12664;BME280;6396;58.490;15.528;2023-07-20T00:43:08;99672.84;;;14.43;100.00
12664;BME280;6396;58.490;15.528;2023-07-20T00:45:36;99662.22;;;14.43;100.00
12664;BME280;6396;58.490;15.528;2023-07-20T00:48:04;99665.72;;;14.43;100.00
12664;BME280;6396;58.490;15.528;2023-07-20T00:50:31;99666.75;;;14.41;100.00
12664;BME280;6396;58.490;15.528;2023-07-20T00:52:58;99670.94;;;14.45;100.00
12664;BME280;6396;58.490;15.528;2023-07-20T00:55:26;99499.38;;;13.35;100.00
12664;BME280;6396;58.490;15.528;2023-07-20T00:57:53;99667.88;;;14.37;100.00
12664;BME280;6396;58.490;15.528;2023-07-20T01:00:22;99664.88;;;14.43;100.00
12664;BME280;6396;58.490;15.528;2023-07-20T01:02:49;99568.19;;;13.85;100.00
12664;BME280;6396;58.490;15.528;2023-07-20T01:05:15;99601.13;;;13.96;100.00
12664;BME280;6396;58.490;15.528;2023-07-20T01:07:47;99620.06;;;13.75;100.00
12664;BME280;6396;58.490;15.528;2023-07-20T01:10:20;99615.44;;;13.94;100.00
12664;BME280;6396;58.490;15.528;2023-07-20T01:12:52;99632.31;;;14.24;100.00
12664;BME280;6396;58.490;15.528;2023-07-20T01:15:19;99661.53;;;14.39;100.00
12664;BME280;6396;58.490;15.528;2023-07-20T01:17:47;99238.25;;;11.88;100.00
12664;BME280;6396;58.490;15.528;2023-07-20T01:20:15;99660.69;;;14.39;100.00
12664;BME280;6396;58.490;15.528;2023-07-20T01:23:10;99656.22;;;14.39;100.00
12664;BME280;6396;58.490;15.528;2023-07-20T01:25:58;99566.13;;;13.59;100.00
12664;BME280;6396;58.490;15.528;2023-07-20T01:28:51;99460.78;;;13.14;100.00
12664;BME280;6396;58.490;15.528;2023-07-20T01:31:27;99631.97;;;14.14;100.00
12664;BME280;6396;58.490;15.528;2023-07-20T01:33:57;99653.31;;;14.28;100.00
12664;BME280;6396;58.490;15.528;2023-07-20T01:36:25;99483.91;;;13.27;100.00
12664;BME280;6396;58.490;15.528;2023-07-20T01:38:52;99659.50;;;14.29;100.00
12664;BME280;6396;58.490;15.528;2023-07-20T01:41:20;99646.31;;;14.27;100.00
12664;BME280;6396;58.490;15.528;2023-07-20T01:43:47;99325.75;;;12.17;100.00
12664;BME280;6396;58.490;15.528;2023-07-20T01:46:14;99671.59;;;14.17;100.00
12664;BME280;6396;58.490;15.528;2023-07-20T01:48:42;99647.56;;;14.20;100.00
12664;BME280;6396;58.490;15.528;2023-07-20T01:51:09;99616.47;;;13.91;100.00
12664;BME280;6396;58.490;15.528;2023-07-20T01:53:37;99652.94;;;14.03;100.00
12664;BME280;6396;58.490;15.528;2023-07-20T01:56:04;99450.72;;;12.88;100.00
12664;BME280;6396;58.490;15.528;2023-07-20T01:58:30;99647.03;;;13.98;100.00
12664;BME280;6396;58.490;15.528;2023-07-20T02:00:57;99602.16;;;13.63;100.00
12664;BME280;6396;58.490;15.528;2023-07-20T02:03:24;99643.19;;;14.04;100.00
12664;BME280;6396;58.490;15.528;2023-07-20T02:05:53;99640.03;;;13.97;100.00
12664;BME280;6396;58.490;15.528;2023-07-20T02:08:20;99417.53;;;12.65;100.00
12664;BME280;6396;58.490;15.528;2023-07-20T02:10:47;99648.41;;;14.05;100.00
12664;BME280;6396;58.490;15.528;2023-07-20T02:13:14;99614.31;;;13.82;100.00
12664;BME280;6396;58.490;15.528;2023-07-20T02:15:41;99643.59;;;14.12;100.00
12664;BME280;6396;58.490;15.528;2023-07-20T02:18:09;99637.38;;;14.13;100.00
12664;BME280;6396;58.490;15.528;2023-07-20T02:20:36;99430.38;;;12.73;100.00
12664;BME280;6396;58.490;15.528;2023-07-20T02:23:07;99482.19;;;13.11;100.00
12664;BME280;6396;58.490;15.528;2023-07-20T02:25:34;99643.78;;;14.09;100.00
12664;BME280;6396;58.490;15.528;2023-07-20T02:28:01;99623.50;;;13.92;100.00
12664;BME280;6396;58.490;15.528;2023-07-20T02:30:28;99578.44;;;13.60;100.00
12664;BME280;6396;58.490;15.528;2023-07-20T02:32:55;99644.38;;;13.98;100.00
12664;BME280;6396;58.490;15.528;2023-07-20T02:35:23;99348.91;;;12.12;100.00
12664;BME280;6396;58.490;15.528;2023-07-20T02:37:51;99584.44;;;13.63;100.00
12664;BME280;6396;58.490;15.528;2023-07-20T02:40:20;99647.72;;;14.02;100.00
12664;BME280;6396;58.490;15.528;2023-07-20T02:42:47;99639.94;;;13.99;100.00
12664;BME280;6396;58.490;15.528;2023-07-20T02:45:14;99644.47;;;13.97;100.00
12664;BME280;6396;58.490;15.528;2023-07-20T02:47:40;99648.75;;;13.99;100.00
12664;BME280;6396;58.490;15.528;2023-07-20T02:50:08;99545.22;;;13.37;100.00
12664;BME280;6396;58.490;15.528;2023-07-20T02:52:35;99629.41;;;13.82;100.00
12664;BME280;6396;58.490;15.528;2023-07-20T02:55:02;99621.34;;;13.68;100.00
12664;BME280;6396;58.490;15.528;2023-07-20T02:57:30;98930.28;;;9.68;100.00
12664;BME280;6396;58.490;15.528;2023-07-20T02:59:56;99403.22;;;12.37;100.00
12664;BME280;6396;58.490;15.528;2023-07-20T03:02:23;99638.19;;;13.82;100.00
12664;BME280;6396;58.490;15.528;2023-07-20T03:04:50;99568.59;;;13.46;100.00
12664;BME280;6396;58.490;15.528;2023-07-20T03:07:17;99660.81;;;13.89;100.00
12664;BME280;6396;58.490;15.528;2023-07-20T03:09:44;99610.81;;;13.66;100.00
12664;BME280;6396;58.490;15.528;2023-07-20T03:12:11;99581.69;;;13.65;100.00
12664;BME280;6396;58.490;15.528;2023-07-20T03:14:39;99636.09;;;13.89;100.00
12664;BME280;6396;58.490;15.528;2023-07-20T03:17:05;99626.56;;;13.85;100.00
12664;BME280;6396;58.490;15.528;2023-07-20T03:19:33;99599.06;;;13.55;100.00
12664;BME280;6396;58.490;15.528;2023-07-20T03:22:00;99627.84;;;13.78;100.00
12664;BME280;6396;58.490;15.528;2023-07-20T03:24:27;99663.91;;;13.82;100.00
12664;BME280;6396;58.490;15.528;2023-07-20T03:26:53;99417.88;;;12.59;100.00
12664;BME280;6396;58.490;15.528;2023-07-20T03:29:20;99061.91;;;10.42;100.00
12664;BME280;6396;58.490;15.528;2023-07-20T03:31:48;99634.81;;;13.80;100.00
12664;BME280;6396;58.490;15.528;2023-07-20T03:34:16;99610.78;;;13.51;100.00
12664;BME280;6396;58.490;15.528;2023-07-20T03:36:42;99546.84;;;13.24;100.00
12664;BME280;6396;58.490;15.528;2023-07-20T03:39:09;99570.91;;;13.36;100.00
12664;BME280;6396;58.490;15.528;2023-07-20T03:41:36;99288.63;;;11.69;100.00
12664;BME280;6396;58.490;15.528;2023-07-20T03:44:03;99619.19;;;13.59;100.00
12664;BME280;6396;58.490;15.528;2023-07-20T03:46:30;99589.00;;;13.28;100.00
12664;BME280;6396;58.490;15.528;2023-07-20T03:49:00;99569.53;;;13.29;100.00
12664;BME280;6396;58.490;15.528;2023-07-20T03:51:27;99628.53;;;13.66;100.00
12664;BME280;6396;58.490;15.528;2023-07-20T03:53:54;99562.09;;;13.36;100.00
12664;BME280;6396;58.490;15.528;2023-07-20T03:56:21;99645.66;;;13.76;100.00
12664;BME280;6396;58.490;15.528;2023-07-20T03:58:48;99625.28;;;13.76;100.00
12664;BME280;6396;58.490;15.528;2023-07-20T04:01:15;99405.63;;;12.41;100.00
12664;BME280;6396;58.490;15.528;2023-07-20T04:03:42;99603.59;;;13.68;100.00
12664;BME280;6396;58.490;15.528;2023-07-20T04:06:10;99618.44;;;13.72;100.00
12664;BME280;6396;58.490;15.528;2023-07-20T04:08:37;99443.03;;;12.68;100.00
12664;BME280;6396;58.490;15.528;2023-07-20T04:11:04;99617.16;;;13.95;100.00
12664;BME280;6396;58.490;15.528;2023-07-20T04:13:30;99613.22;;;14.02;100.00
12664;BME280;6396;58.490;15.528;2023-07-20T04:15:58;99186.09;;;11.42;100.00
12664;BME280;6396;58.490;15.528;2023-07-20T04:18:25;99612.53;;;13.98;100.00
12664;BME280;6396;58.490;15.528;2023-07-20T04:20:52;99638.56;;;14.07;100.00
12664;BME280;6396;58.490;15.528;2023-07-20T04:23:20;99618.69;;;14.14;100.00
12664;BME280;6396;58.490;15.528;2023-07-20T04:25:47;99468.75;;;13.14;100.00
12664;BME280;6396;58.490;15.528;2023-07-20T04:28:13;99465.88;;;13.34;100.00
12664;BME280;6396;58.490;15.528;2023-07-20T04:30:40;99590.78;;;14.07;100.00
12664;BME280;6396;58.490;15.528;2023-07-20T04:33:07;99611.91;;;14.40;100.00
12664;BME280;6396;58.490;15.528;2023-07-20T04:35:48;99618.00;;;14.42;100.00
12664;BME280;6396;58.490;15.528;2023-07-20T04:38:16;99614.03;;;14.49;100.00
12664;BME280;6396;58.490;15.528;2023-07-20T04:40:46;99617.03;;;14.59;100.00
12664;BME280;6396;58.490;15.528;2023-07-20T04:43:13;99595.59;;;14.32;100.00
12664;BME280;6396;58.490;15.528;2023-07-20T04:45:40;99642.75;;;14.58;100.00
12664;BME280;6396;58.490;15.528;2023-07-20T04:48:10;99539.84;;;14.01;100.00
12664;BME280;6396;58.490;15.528;2023-07-20T04:50:38;99566.66;;;14.27;100.00
12664;BME280;6396;58.490;15.528;2023-07-20T04:53:05;99564.06;;;14.26;100.00
12664;BME280;6396;58.490;15.528;2023-07-20T04:55:31;99646.56;;;14.68;100.00
12664;BME280;6396;58.490;15.528;2023-07-20T04:58:01;99513.38;;;14.15;100.00
12664;BME280;6396;58.490;15.528;2023-07-20T05:00:31;99619.88;;;14.85;100.00
12664;BME280;6396;58.490;15.528;2023-07-20T05:02:58;99526.19;;;14.38;100.00
12664;BME280;6396;58.490;15.528;2023-07-20T05:05:25;99620.75;;;15.00;100.00
12664;BME280;6396;58.490;15.528;2023-07-20T05:07:52;99595.34;;;14.80;100.00
12664;BME280;6396;58.490;15.528;2023-07-20T05:10:20;99483.84;;;14.05;100.00
12664;BME280;6396;58.490;15.528;2023-07-20T05:12:46;99578.09;;;14.87;100.00
12664;BME280;6396;58.490;15.528;2023-07-20T05:15:15;99523.88;;;14.62;100.00
12664;BME280;6396;58.490;15.528;2023-07-20T05:17:42;99514.63;;;14.53;100.00
12664;BME280;6396;58.490;15.528;2023-07-20T05:20:09;99614.03;;;15.36;100.00
12664;BME280;6396;58.490;15.528;2023-07-20T05:22:37;99589.94;;;15.25;100.00
12664;BME280;6396;58.490;15.528;2023-07-20T05:25:07;99486.44;;;14.50;100.00
12664;BME280;6396;58.490;15.528;2023-07-20T05:27:36;99491.91;;;14.77;100.00
12664;BME280;6396;58.490;15.528;2023-07-20T05:30:04;99612.09;;;15.54;100.00
12664;BME280;6396;58.490;15.528;2023-07-20T05:32:33;99473.59;;;14.73;100.00
12664;BME280;6396;58.490;15.528;2023-07-20T05:35:01;99494.19;;;14.97;100.00
12664;BME280;6396;58.490;15.528;2023-07-20T05:37:27;99542.88;;;15.26;100.00
12664;BME280;6396;58.490;15.528;2023-07-20T05:39:54;99612.75;;;15.57;100.00
12664;BME280;6396;58.490;15.528;2023-07-20T05:42:21;99619.59;;;15.61;100.00
12664;BME280;6396;58.490;15.528;2023-07-20T05:44:48;99597.09;;;15.53;100.00
12664;BME280;6396;58.490;15.528;2023-07-20T05:47:15;99499.88;;;15.05;100.00
12664;BME280;6396;58.490;15.528;2023-07-20T05:49:43;99605.50;;;15.88;100.00
12664;BME280;6396;58.490;15.528;2023-07-20T05:52:10;99616.88;;;16.04;100.00
12664;BME280;6396;58.490;15.528;2023-07-20T05:54:37;99581.09;;;15.81;100.00
12664;BME280;6396;58.490;15.528;2023-07-20T05:57:04;99440.72;;;15.16;100.00
12664;BME280;6396;58.490;15.528;2023-07-20T05:59:31;99607.38;;;16.00;100.00
12664;BME280;6396;58.490;15.528;2023-07-20T06:01:58;99579.69;;;16.02;100.00
12664;BME280;6396;58.490;15.528;2023-07-20T06:04:25;99578.13;;;16.12;100.00
12664;BME280;6396;58.490;15.528;2023-07-20T06:06:53;99610.53;;;16.59;100.00
12664;BME280;6396;58.490;15.528;2023-07-20T06:09:20;99651.28;;;16.61;100.00
12664;BME280;6396;58.490;15.528;2023-07-20T06:11:46;99537.88;;;16.17;100.00
12664;BME280;6396;58.490;15.528;2023-07-20T06:14:13;99607.44;;;16.65;100.00
12664;BME280;6396;58.490;15.528;2023-07-20T06:16:40;99587.03;;;16.52;100.00
12664;BME280;6396;58.490;15.528;2023-07-20T06:19:07;99525.84;;;16.24;100.00
12664;BME280;6396;58.490;15.528;2023-07-20T06:21:36;99300.47;;;15.05;100.00
12664;BME280;6396;58.490;15.528;2023-07-20T06:24:05;99585.28;;;16.65;100.00
12664;BME280;6396;58.490;15.528;2023-07-20T06:26:32;99546.44;;;16.61;100.00
12664;BME280;6396;58.490;15.528;2023-07-20T06:29:04;99624.78;;;16.98;100.00
12664;BME280;6396;58.490;15.528;2023-07-20T06:31:32;99571.41;;;16.60;100.00
12664;BME280;6396;58.490;15.528;2023-07-20T06:33:59;99609.22;;;16.92;100.00
12664;BME280;6396;58.490;15.528;2023-07-20T06:36:26;99614.88;;;17.00;100.00
12664;BME280;6396;58.490;15.528;2023-07-20T06:38:53;99486.44;;;16.29;100.00
12664;BME280;6396;58.490;15.528;2023-07-20T06:41:22;99600.06;;;17.08;100.00
12664;BME280;6396;58.490;15.528;2023-07-20T06:43:48;99524.06;;;16.51;100.00
12664;BME280;6396;58.490;15.528;2023-07-20T06:46:15;99601.84;;;17.08;100.00
12664;BME280;6396;58.490;15.528;2023-07-20T06:48:42;99481.47;;;16.37;100.00
12664;BME280;6396;58.490;15.528;2023-07-20T06:51:09;99448.50;;;16.13;100.00
12664;BME280;6396;58.490;15.528;2023-07-20T06:53:36;99419.34;;;15.85;100.00
12664;BME280;6396;58.490;15.528;2023-07-20T06:56:03;99437.16;;;15.97;100.00
12664;BME280;6396;58.490;15.528;2023-07-20T06:58:31;99650.97;;;17.05;100.00
12664;BME280;6396;58.490;15.528;2023-07-20T07:00:58;99506.84;;;16.42;100.00
12664;BME280;6396;58.490;15.528;2023-07-20T07:03:25;99604.53;;;17.20;100.00
12664;BME280;6396;58.490;15.528;2023-07-20T07:05:55;99598.47;;;17.31;100.00
12664;BME280;6396;58.490;15.528;2023-07-20T07:08:21;99602.19;;;17.41;100.00
12664;BME280;6396;58.490;15.528;2023-07-20T07:10:50;99608.53;;;17.52;100.00
12664;BME280;6396;58.490;15.528;2023-07-20T07:13:17;99536.44;;;17.27;100.00
12664;BME280;6396;58.490;15.528;2023-07-20T07:15:45;99609.22;;;17.79;100.00
12664;BME280;6396;58.490;15.528;2023-07-20T07:18:12;99601.06;;;17.94;100.00
12664;BME280;6396;58.490;15.528;2023-07-20T07:20:39;99607.13;;;18.08;100.00
12664;BME280;6396;58.490;15.528;2023-07-20T07:23:06;99505.22;;;17.65;100.00
12664;BME280;6396;58.490;15.528;2023-07-20T07:25:33;99602.31;;;18.37;100.00
12664;BME280;6396;58.490;15.528;2023-07-20T07:27:59;99591.97;;;18.09;100.00
12664;BME280;6396;58.490;15.528;2023-07-20T07:30:26;99616.88;;;18.33;100.00
12664;BME280;6396;58.490;15.528;2023-07-20T07:32:54;99599.59;;;18.26;100.00
12664;BME280;6396;58.490;15.528;2023-07-20T07:35:21;99594.50;;;18.34;100.00
12664;BME280;6396;58.490;15.528;2023-07-20T07:37:48;99575.19;;;18.30;100.00
12664;BME280;6396;58.490;15.528;2023-07-20T07:40:15;99634.34;;;18.49;100.00
12664;BME280;6396;58.490;15.528;2023-07-20T07:42:42;99302.47;;;16.81;100.00
12664;BME280;6396;58.490;15.528;2023-07-20T07:45:09;99480.47;;;17.87;100.00
12664;BME280;6396;58.490;15.528;2023-07-20T07:47:37;99592.22;;;18.87;100.00
12664;BME280;6396;58.490;15.528;2023-07-20T07:50:06;99456.63;;;18.08;100.00
12664;BME280;6396;58.490;15.528;2023-07-20T07:52:33;99590.72;;;19.29;100.00
12664;BME280;6396;58.490;15.528;2023-07-20T07:55:01;99619.13;;;19.65;100.00
12664;BME280;6396;58.490;15.528;2023-07-20T07:57:29;99595.88;;;19.98;100.00
12664;BME280;6396;58.490;15.528;2023-07-20T07:59:56;99563.47;;;20.44;100.00
12664;BME280;6396;58.490;15.528;2023-07-20T08:02:22;99401.09;;;20.61;100.00
12664;BME280;6396;58.490;15.528;2023-07-20T08:04:49;99601.13;;;22.17;100.00
12664;BME280;6396;58.490;15.528;2023-07-20T08:07:23;99308.38;;;21.08;85.62
12664;BME280;6396;58.490;15.528;2023-07-20T08:09:49;99583.91;;;23.34;91.54
12664;BME280;6396;58.490;15.528;2023-07-20T08:12:16;99487.94;;;23.14;84.39
12664;BME280;6396;58.490;15.528;2023-07-20T08:14:44;99534.16;;;23.65;79.93
12664;BME280;6396;58.490;15.528;2023-07-20T08:17:11;99576.19;;;24.57;75.15
12664;BME280;6396;58.490;15.528;2023-07-20T08:19:38;99557.63;;;24.09;72.15
12664;BME280;6396;58.490;15.528;2023-07-20T08:22:07;99557.06;;;24.33;64.25
12664;BME280;6396;58.490;15.528;2023-07-20T08:24:39;99406.81;;;23.54;60.56
12664;BME280;6396;58.490;15.528;2023-07-20T08:27:06;99578.50;;;23.80;62.92
12664;BME280;6396;58.490;15.528;2023-07-20T08:29:33;99562.84;;;23.57;63.22
12664;BME280;6396;58.490;15.528;2023-07-20T08:32:00;99353.56;;;21.61;66.85
12664;BME280;6396;58.490;15.528;2023-07-20T08:34:27;99508.72;;;22.28;71.15
12664;BME280;6396;58.490;15.528;2023-07-20T08:36:55;99573.66;;;22.13;70.66
12664;BME280;6396;58.490;15.528;2023-07-20T08:39:22;99576.38;;;22.33;73.10
12664;BME280;6396;58.490;15.528;2023-07-20T08:41:51;99576.28;;;23.01;69.45
12664;BME280;6396;58.490;15.528;2023-07-20T08:44:18;99580.97;;;22.61;73.01
12664;BME280;6396;58.490;15.528;2023-07-20T08:46:45;99572.81;;;22.03;77.15
12664;BME280;6396;58.490;15.528;2023-07-20T08:49:15;99452.25;;;21.50;74.37
12664;BME280;6396;58.490;15.528;2023-07-20T08:51:43;99570.72;;;23.41;71.82
12664;BME280;6396;58.490;15.528;2023-07-20T08:54:12;99548.88;;;23.71;64.34
12664;BME280;6396;58.490;15.528;2023-07-20T08:56:40;99531.91;;;23.14;61.25
12664;BME280;6396;58.490;15.528;2023-07-20T08:59:09;99430.56;;;22.00;64.37
12664;BME280;6396;58.490;15.528;2023-07-20T09:01:38;99478.56;;;22.14;66.82
12664;BME280;6396;58.490;15.528;2023-07-20T09:04:05;99443.59;;;22.34;67.98
12664;BME280;6396;58.490;15.528;2023-07-20T09:06:32;99540.81;;;23.24;63.06
12664;BME280;6396;58.490;15.528;2023-07-20T09:09:00;99514.44;;;23.28;65.19
12664;BME280;6396;58.490;15.528;2023-07-20T09:11:27;99531.25;;;22.84;68.14
12664;BME280;6396;58.490;15.528;2023-07-20T09:14:04;99540.28;;;22.16;66.79
12664;BME280;6396;58.490;15.528;2023-07-20T09:16:46;99396.53;;;20.82;72.54
12664;BME280;6396;58.490;15.528;2023-07-20T09:19:15;99552.41;;;21.31;82.25
12664;BME280;6396;58.490;15.528;2023-07-20T09:21:44;99435.97;;;20.40;86.29
12664;BME280;6396;58.490;15.528;2023-07-20T09:24:12;99601.78;;;21.70;85.81
12664;BME280;6396;58.490;15.528;2023-07-20T09:26:41;99580.88;;;22.13;79.34
12664;BME280;6396;58.490;15.528;2023-07-20T09:29:08;99404.56;;;20.72;79.26
12664;BME280;6396;58.490;15.528;2023-07-20T09:31:38;99581.78;;;22.42;73.56
12664;BME280;6396;58.490;15.528;2023-07-20T09:34:05;99576.72;;;22.96;68.92
12664;BME280;6396;58.490;15.528;2023-07-20T09:36:33;99568.44;;;23.36;64.28
12664;BME280;6396;58.490;15.528;2023-07-20T09:39:01;99537.22;;;23.43;66.13
12664;BME280;6396;58.490;15.528;2023-07-20T09:41:29;99465.06;;;22.81;64.31
12664;BME280;6396;58.490;15.528;2023-07-20T09:43:56;99578.00;;;23.94;63.23
12664;BME280;6396;58.490;15.528;2023-07-20T09:46:23;99465.78;;;23.30;60.83
12664;BME280;6396;58.490;15.528;2023-07-20T09:48:54;99572.09;;;24.36;56.76
12664;BME280;6396;58.490;15.528;2023-07-20T09:51:23;99496.50;;;24.00;59.64
12664;BME280;6396;58.490;15.528;2023-07-20T09:53:52;99570.78;;;24.40;57.83
12664;BME280;6396;58.490;15.528;2023-07-20T09:56:21;99507.97;;;23.48;57.60
12664;BME280;6396;58.490;15.528;2023-07-20T09:58:48;99519.66;;;23.20;59.09
12664;BME280;6396;58.490;15.528;2023-07-20T10:01:17;99578.56;;;23.05;59.10
12664;BME280;6396;58.490;15.528;2023-07-20T10:03:47;99595.84;;;22.55;64.02
12664;BME280;6396;58.490;15.528;2023-07-20T10:06:23;99585.88;;;22.37;65.95
12664;BME280;6396;58.490;15.528;2023-07-20T10:08:53;99366.63;;;20.56;74.04
12664;BME280;6396;58.490;15.528;2023-07-20T10:11:22;99205.47;;;19.37;75.23
12664;BME280;6396;58.490;15.528;2023-07-20T10:13:53;99381.63;;;20.18;77.45
12664;BME280;6396;58.490;15.528;2023-07-20T10:16:29;99585.91;;;21.27;78.13
12664;BME280;6396;58.490;15.528;2023-07-20T10:19:03;99386.13;;;20.58;75.89
12664;BME280;6396;58.490;15.528;2023-07-20T10:21:33;99591.53;;;22.14;76.37
12664;BME280;6396;58.490;15.528;2023-07-20T10:24:02;99421.16;;;21.66;75.35
12664;BME280;6396;58.490;15.528;2023-07-20T10:26:29;99355.53;;;21.59;66.66
12664;BME280;6396;58.490;15.528;2023-07-20T10:28:58;99560.00;;;22.83;65.68
12664;BME280;6396;58.490;15.528;2023-07-20T10:31:26;99444.34;;;21.48;64.77
12664;BME280;6396;58.490;15.528;2023-07-20T10:33:54;99457.16;;;21.05;66.48
12664;BME280;6396;58.490;15.528;2023-07-20T10:36:25;99558.00;;;21.79;65.44
12664;BME280;6396;58.490;15.528;2023-07-20T10:38:55;99562.66;;;21.47;63.08
12664;BME280;6396;58.490;15.528;2023-07-20T10:41:27;99543.13;;;20.94;66.80
12664;BME280;6396;58.490;15.528;2023-07-20T10:43:59;99181.97;;;18.77;68.44
12664;BME280;6396;58.490;15.528;2023-07-20T10:46:36;99571.03;;;21.23;66.28
12664;BME280;6396;58.490;15.528;2023-07-20T10:49:09;99561.13;;;21.54;61.83
12664;BME280;6396;58.490;15.528;2023-07-20T10:51:39;99563.22;;;21.50;58.32
12664;BME280;6396;58.490;15.528;2023-07-20T10:54:10;99568.03;;;21.47;61.60
12664;BME280;6396;58.490;15.528;2023-07-20T10:56:57;99578.38;;;21.51;62.26
12664;BME280;6396;58.490;15.528;2023-07-20T10:59:37;99540.69;;;21.32;62.43
12664;BME280;6396;58.490;15.528;2023-07-20T11:02:06;99576.44;;;21.63;67.96
12664;BME280;6396;58.490;15.528;2023-07-20T11:04:40;99543.44;;;21.21;71.38
12664;BME280;6396;58.490;15.528;2023-07-20T11:07:07;99470.00;;;20.60;72.76
12664;BME280;6396;58.490;15.528;2023-07-20T11:09:36;99576.97;;;21.27;71.89
12664;BME280;6396;58.490;15.528;2023-07-20T11:12:09;99547.38;;;21.17;71.92
12664;BME280;6396;58.490;15.528;2023-07-20T11:14:40;99592.25;;;21.56;66.62
12664;BME280;6396;58.490;15.528;2023-07-20T11:17:11;99569.75;;;21.57;68.85
12664;BME280;6396;58.490;15.528;2023-07-20T11:19:39;99595.84;;;21.66;71.90
12664;BME280;6396;58.490;15.528;2023-07-20T11:22:06;99562.28;;;21.61;70.72
12664;BME280;6396;58.490;15.528;2023-07-20T11:24:38;99555.03;;;21.82;69.23
12664;BME280;6396;58.490;15.528;2023-07-20T11:27:05;99536.56;;;21.88;69.67
12664;BME280;6396;58.490;15.528;2023-07-20T11:29:32;99582.91;;;22.40;71.63
12664;BME280;6396;58.490;15.528;2023-07-20T11:31:59;99569.28;;;22.12;72.10
12664;BME280;6396;58.490;15.528;2023-07-20T11:34:27;99575.59;;;21.92;73.93
12664;BME280;6396;58.490;15.528;2023-07-20T11:36:54;99580.97;;;21.62;78.82
12664;BME280;6396;58.490;15.528;2023-07-20T11:39:22;99564.75;;;21.13;80.62
12664;BME280;6396;58.490;15.528;2023-07-20T11:41:53;99350.75;;;20.02;83.15
12664;BME280;6396;58.490;15.528;2023-07-20T11:44:21;99539.84;;;20.90;83.65
12664;BME280;6396;58.490;15.528;2023-07-20T11:46:59;99609.94;;;21.08;85.54
12664;BME280;6396;58.490;15.528;2023-07-20T11:49:25;99212.47;;;18.86;83.00
12664;BME280;6396;58.490;15.528;2023-07-20T11:51:53;99598.75;;;20.92;82.28
12664;BME280;6396;58.490;15.528;2023-07-20T11:54:20;99580.56;;;20.95;80.07
12664;BME280;6396;58.490;15.528;2023-07-20T11:56:47;99522.31;;;20.66;80.51
12664;BME280;6396;58.490;15.528;2023-07-20T11:59:18;99555.09;;;20.90;80.54
12664;BME280;6396;58.490;15.528;2023-07-20T12:01:45;99566.09;;;21.28;80.02
12664;BME280;6396;58.490;15.528;2023-07-20T12:04:12;99528.69;;;21.06;79.54
12664;BME280;6396;58.490;15.528;2023-07-20T12:06:40;99505.78;;;21.12;76.38
12664;BME280;6396;58.490;15.528;2023-07-20T12:09:13;99561.09;;;21.44;77.87
12664;BME280;6396;58.490;15.528;2023-07-20T12:11:43;99547.59;;;21.35;76.02
12664;BME280;6396;58.490;15.528;2023-07-20T12:14:10;99562.19;;;21.42;77.42
12664;BME280;6396;58.490;15.528;2023-07-20T12:16:38;99563.34;;;21.39;74.75
12664;BME280;6396;58.490;15.528;2023-07-20T12:19:09;99018.84;;;17.60;73.67
12664;BME280;6396;58.490;15.528;2023-07-20T12:21:37;99353.28;;;20.04;72.45
12664;BME280;6396;58.490;15.528;2023-07-20T12:24:05;99445.88;;;20.40;72.27
12664;BME280;6396;58.490;15.528;2023-07-20T12:26:34;99552.22;;;21.23;71.46
12664;BME280;6396;58.490;15.528;2023-07-20T12:29:06;98932.63;;;17.49;72.19
12664;BME280;6396;58.490;15.528;2023-07-20T12:31:36;99536.72;;;21.06;71.57
12664;BME280;6396;58.490;15.528;2023-07-20T12:34:10;98921.34;;;17.01;68.46
12664;BME280;6396;58.490;15.528;2023-07-20T12:36:37;99586.88;;;21.05;70.49
12664;BME280;6396;58.490;15.528;2023-07-20T12:39:04;99551.50;;;21.21;69.77
12664;BME280;6396;58.490;15.528;2023-07-20T12:41:31;99488.72;;;20.92;66.74
12664;BME280;6396;58.490;15.528;2023-07-20T12:43:58;99565.09;;;21.29;69.47
12664;BME280;6396;58.490;15.528;2023-07-20T12:46:25;99554.94;;;21.63;69.43
12664;BME280;6396;58.490;15.528;2023-07-20T12:48:54;99398.31;;;20.62;67.34
12664;BME280;6396;58.490;15.528;2023-07-20T12:51:22;99576.84;;;21.58;65.71
12664;BME280;6396;58.490;15.528;2023-07-20T12:53:50;99443.09;;;20.92;65.42
12664;BME280;6396;58.490;15.528;2023-07-20T12:56:17;99473.63;;;21.21;68.95
12664;BME280;6396;58.490;15.528;2023-07-20T12:58:44;99504.84;;;21.52;69.50